sensor_id;sensor_type;location;lat;lon;timestamp;P1;durP1;ratioP1;P2;durP2;ratioP2
39190;SDS011;24916;51.676;6.614;2023-07-09T00:00:14;12.98;;;4.97;;
39190;SDS011;24916;51.676;6.614;2023-07-09T00:02:40;9.25;;;5.15;;
39190;SDS011;24916;51.676;6.614;2023-07-09T00:05:05;7.93;;;4.90;;
39190;SDS011;24916;51.676;6.614;2023-07-09T00:07:31;8.55;;;5.18;;
39190;SDS011;24916;51.676;6.614;2023-07-09T00:09:57;14.40;;;4.88;;
39190;SDS011;24916;51.676;6.614;2023-07-09T00:12:22;8.02;;;4.95;;
39190;SDS011;24916;51.676;6.614;2023-07-09T00:14:48;8.90;;;5.32;;
39190;SDS011;24916;51.676;6.614;2023-07-09T00:17:25;8.85;;;5.43;;
39190;SDS011;24916;51.676;6.614;2023-07-09T00:19:51;9.70;;;5.28;;
39190;SDS011;24916;51.676;6.614;2023-07-09T00:22:17;8.30;;;4.72;;
39190;SDS011;24916;51.676;6.614;2023-07-09T00:24:43;11.57;;;4.93;;
39190;SDS011;24916;51.676;6.614;2023-07-09T00:27:09;9.55;;;5.38;;
39190;SDS011;24916;51.676;6.614;2023-07-09T00:29:35;7.82;;;5.10;;
39190;SDS011;24916;51.676;6.614;2023-07-09T00:32:00;10.37;;;5.23;;
39190;SDS011;24916;51.676;6.614;2023-07-09T00:34:25;10.20;;;5.23;;
39190;SDS011;24916;51.676;6.614;2023-07-09T00:36:50;11.17;;;5.57;;
39190;SDS011;24916;51.676;6.614;2023-07-09T00:39:17;8.65;;;6.03;;
39190;SDS011;24916;51.676;6.614;2023-07-09T00:41:43;10.10;;;5.47;;
39190;SDS011;24916;51.676;6.614;2023-07-09T00:49:29;11.27;;;5.85;;
39190;SDS011;24916;51.676;6.614;2023-07-09T00:51:54;7.13;;;5.13;;
39190;SDS011;24916;51.676;6.614;2023-07-09T00:54:24;8.23;;;5.15;;
39190;SDS011;24916;51.676;6.614;2023-07-09T00:56:55;9.38;;;5.47;;
39190;SDS011;24916;51.676;6.614;2023-07-09T00:59:24;7.90;;;5.30;;
39190;SDS011;24916;51.676;6.614;2023-07-09T01:01:53;7.20;;;5.03;;
39190;SDS011;24916;51.676;6.614;2023-07-09T01:04:19;8.63;;;5.10;;
39190;SDS011;24916;51.676;6.614;2023-07-09T01:06:49;11.55;;;5.35;;
39190;SDS011;24916;51.676;6.614;2023-07-09T01:09:15;7.10;;;5.50;;
39190;SDS011;24916;51.676;6.614;2023-07-09T01:11:40;9.35;;;5.43;;
39190;SDS011;24916;51.676;6.614;2023-07-09T01:14:06;9.53;;;5.30;;
39190;SDS011;24916;51.676;6.614;2023-07-09T01:16:33;8.52;;;5.28;;
39190;SDS011;24916;51.676;6.614;2023-07-09T01:18:59;8.55;;;5.32;;
39190;SDS011;24916;51.676;6.614;2023-07-09T01:21:25;10.30;;;5.97;;
39190;SDS011;24916;51.676;6.614;2023-07-09T01:23:52;13.13;;;8.90;;
39190;SDS011;24916;51.676;6.614;2023-07-09T01:26:19;12.40;;;8.00;;
39190;SDS011;24916;51.676;6.614;2023-07-09T01:28:44;12.82;;;7.57;;
39190;SDS011;24916;51.676;6.614;2023-07-09T01:31:11;9.07;;;6.80;;
39190;SDS011;24916;51.676;6.614;2023-07-09T01:33:37;9.43;;;6.60;;
39190;SDS011;24916;51.676;6.614;2023-07-09T01:36:04;8.27;;;5.95;;
39190;SDS011;24916;51.676;6.614;2023-07-09T01:38:29;8.52;;;5.38;;
39190;SDS011;24916;51.676;6.614;2023-07-09T01:40:58;11.88;;;5.88;;
39190;SDS011;24916;51.676;6.614;2023-07-09T01:43:24;11.27;;;6.47;;
39190;SDS011;24916;51.676;6.614;2023-07-09T01:45:50;9.90;;;6.18;;
39190;SDS011;24916;51.676;6.614;2023-07-09T01:48:16;11.48;;;6.32;;
39190;SDS011;24916;51.676;6.614;2023-07-09T01:50:41;12.15;;;6.15;;
39190;SDS011;24916;51.676;6.614;2023-07-09T01:53:08;11.15;;;6.20;;
39190;SDS011;24916;51.676;6.614;2023-07-09T01:55:34;15.07;;;6.32;;
39190;SDS011;24916;51.676;6.614;2023-07-09T01:57:59;14.40;;;6.80;;
39190;SDS011;24916;51.676;6.614;2023-07-09T02:00:24;10.87;;;6.80;;
39190;SDS011;24916;51.676;6.614;2023-07-09T02:02:49;12.80;;;6.25;;
39190;SDS011;24916;51.676;6.614;2023-07-09T02:05:16;8.45;;;5.55;;
39190;SDS011;24916;51.676;6.614;2023-07-09T02:07:42;9.68;;;6.18;;
39190;SDS011;24916;51.676;6.614;2023-07-09T02:10:07;8.98;;;6.30;;
39190;SDS011;24916;51.676;6.614;2023-07-09T02:12:33;13.82;;;8.07;;
39190;SDS011;24916;51.676;6.614;2023-07-09T02:14:58;12.63;;;8.37;;
39190;SDS011;24916;51.676;6.614;2023-07-09T02:17:23;14.60;;;8.07;;
39190;SDS011;24916;51.676;6.614;2023-07-09T02:19:48;9.63;;;7.25;;
39190;SDS011;24916;51.676;6.614;2023-07-09T02:22:14;8.53;;;6.23;;
39190;SDS011;24916;51.676;6.614;2023-07-09T02:24:39;9.93;;;6.63;;
39190;SDS011;24916;51.676;6.614;2023-07-09T02:27:06;6.93;;;6.00;;
39190;SDS011;24916;51.676;6.614;2023-07-09T02:29:32;9.02;;;5.97;;
39190;SDS011;24916;51.676;6.614;2023-07-09T02:31:58;11.15;;;6.68;;
39190;SDS011;24916;51.676;6.614;2023-07-09T02:34:26;11.13;;;6.57;;
39190;SDS011;24916;51.676;6.614;2023-07-09T02:36:52;8.90;;;5.75;;
39190;SDS011;24916;51.676;6.614;2023-07-09T02:39:17;11.20;;;6.88;;
39190;SDS011;24916;51.676;6.614;2023-07-09T02:41:43;9.30;;;6.10;;
39190;SDS011;24916;51.676;6.614;2023-07-09T02:44:08;8.93;;;6.13;;
39190;SDS011;24916;51.676;6.614;2023-07-09T02:46:33;10.43;;;5.97;;
39190;SDS011;24916;51.676;6.614;2023-07-09T02:48:59;8.68;;;6.38;;
39190;SDS011;24916;51.676;6.614;2023-07-09T02:51:24;9.13;;;6.47;;
39190;SDS011;24916;51.676;6.614;2023-07-09T02:53:56;14.23;;;6.75;;
39190;SDS011;24916;51.676;6.614;2023-07-09T02:56:21;10.70;;;6.65;;
39190;SDS011;24916;51.676;6.614;2023-07-09T02:58:46;9.43;;;6.80;;
39190;SDS011;24916;51.676;6.614;2023-07-09T03:01:12;11.95;;;7.15;;
39190;SDS011;24916;51.676;6.614;2023-07-09T03:03:37;9.82;;;6.60;;
39190;SDS011;24916;51.676;6.614;2023-07-09T03:06:02;12.65;;;6.82;;
39190;SDS011;24916;51.676;6.614;2023-07-09T03:08:28;12.73;;;7.28;;
39190;SDS011;24916;51.676;6.614;2023-07-09T03:10:53;9.43;;;6.97;;
39190;SDS011;24916;51.676;6.614;2023-07-09T03:13:18;12.37;;;7.23;;
39190;SDS011;24916;51.676;6.614;2023-07-09T03:15:43;9.47;;;7.20;;
39190;SDS011;24916;51.676;6.614;2023-07-09T03:18:18;10.68;;;7.30;;
39190;SDS011;24916;51.676;6.614;2023-07-09T03:20:43;15.97;;;6.97;;
39190;SDS011;24916;51.676;6.614;2023-07-09T03:23:08;12.17;;;6.93;;
39190;SDS011;24916;51.676;6.614;2023-07-09T03:25:33;10.67;;;7.53;;
39190;SDS011;24916;51.676;6.614;2023-07-09T03:27:59;9.20;;;6.88;;
39190;SDS011;24916;51.676;6.614;2023-07-09T03:30:24;10.55;;;6.93;;
39190;SDS011;24916;51.676;6.614;2023-07-09T03:32:49;9.75;;;7.55;;
39190;SDS011;24916;51.676;6.614;2023-07-09T03:35:14;10.17;;;6.80;;
39190;SDS011;24916;51.676;6.614;2023-07-09T03:37:40;9.95;;;6.70;;
39190;SDS011;24916;51.676;6.614;2023-07-09T03:40:05;13.03;;;7.27;;
39190;SDS011;24916;51.676;6.614;2023-07-09T03:42:31;12.20;;;6.22;;
39190;SDS011;24916;51.676;6.614;2023-07-09T03:44:56;14.27;;;7.97;;
39190;SDS011;24916;51.676;6.614;2023-07-09T03:47:21;11.23;;;7.10;;
39190;SDS011;24916;51.676;6.614;2023-07-09T03:49:46;13.80;;;7.67;;
39190;SDS011;24916;51.676;6.614;2023-07-09T03:52:12;10.73;;;7.47;;
39190;SDS011;24916;51.676;6.614;2023-07-09T03:54:37;13.13;;;7.57;;
39190;SDS011;24916;51.676;6.614;2023-07-09T03:57:02;13.90;;;8.13;;
39190;SDS011;24916;51.676;6.614;2023-07-09T03:59:27;11.52;;;7.70;;
39190;SDS011;24916;51.676;6.614;2023-07-09T04:01:53;12.43;;;7.47;;
39190;SDS011;24916;51.676;6.614;2023-07-09T04:04:18;12.25;;;7.40;;
39190;SDS011;24916;51.676;6.614;2023-07-09T04:06:46;10.63;;;7.40;;
39190;SDS011;24916;51.676;6.614;2023-07-09T04:09:12;10.32;;;6.82;;
39190;SDS011;24916;51.676;6.614;2023-07-09T04:11:37;9.75;;;7.22;;
39190;SDS011;24916;51.676;6.614;2023-07-09T04:14:02;10.53;;;7.53;;
39190;SDS011;24916;51.676;6.614;2023-07-09T04:16:27;13.93;;;9.03;;
39190;SDS011;24916;51.676;6.614;2023-07-09T04:18:53;14.33;;;7.40;;
39190;SDS011;24916;51.676;6.614;2023-07-09T04:21:18;11.38;;;7.20;;
39190;SDS011;24916;51.676;6.614;2023-07-09T04:23:43;12.85;;;7.65;;
39190;SDS011;24916;51.676;6.614;2023-07-09T04:26:12;13.75;;;7.88;;
39190;SDS011;24916;51.676;6.614;2023-07-09T04:28:37;16.30;;;7.18;;
39190;SDS011;24916;51.676;6.614;2023-07-09T04:31:02;17.80;;;7.70;;
39190;SDS011;24916;51.676;6.614;2023-07-09T04:33:28;10.43;;;7.85;;
39190;SDS011;24916;51.676;6.614;2023-07-09T04:35:53;10.57;;;7.30;;
39190;SDS011;24916;51.676;6.614;2023-07-09T04:38:18;13.52;;;7.72;;
39190;SDS011;24916;51.676;6.614;2023-07-09T04:40:44;11.35;;;7.97;;
39190;SDS011;24916;51.676;6.614;2023-07-09T04:43:09;14.55;;;9.07;;
39190;SDS011;24916;51.676;6.614;2023-07-09T04:45:34;11.13;;;8.38;;
39190;SDS011;24916;51.676;6.614;2023-07-09T04:47:59;10.87;;;8.40;;
39190;SDS011;24916;51.676;6.614;2023-07-09T04:50:25;10.23;;;7.33;;
39190;SDS011;24916;51.676;6.614;2023-07-09T04:52:50;11.75;;;8.13;;
39190;SDS011;24916;51.676;6.614;2023-07-09T04:55:17;12.75;;;7.55;;
39190;SDS011;24916;51.676;6.614;2023-07-09T04:57:43;13.65;;;7.72;;
39190;SDS011;24916;51.676;6.614;2023-07-09T05:00:09;11.07;;;7.45;;
39190;SDS011;24916;51.676;6.614;2023-07-09T05:02:34;11.52;;;7.70;;
39190;SDS011;24916;51.676;6.614;2023-07-09T05:04:59;13.40;;;7.40;;
39190;SDS011;24916;51.676;6.614;2023-07-09T05:07:25;9.87;;;7.20;;
39190;SDS011;24916;51.676;6.614;2023-07-09T05:09:50;9.30;;;6.78;;
39190;SDS011;24916;51.676;6.614;2023-07-09T05:12:15;9.97;;;6.70;;
39190;SDS011;24916;51.676;6.614;2023-07-09T05:14:40;17.65;;;7.32;;
39190;SDS011;24916;51.676;6.614;2023-07-09T05:17:06;12.90;;;7.60;;
39190;SDS011;24916;51.676;6.614;2023-07-09T05:19:32;12.68;;;7.70;;
39190;SDS011;24916;51.676;6.614;2023-07-09T05:21:57;9.43;;;6.40;;
39190;SDS011;24916;51.676;6.614;2023-07-09T05:24:22;12.02;;;7.03;;
39190;SDS011;24916;51.676;6.614;2023-07-09T05:26:48;12.40;;;6.97;;
39190;SDS011;24916;51.676;6.614;2023-07-09T05:29:13;11.63;;;6.78;;
39190;SDS011;24916;51.676;6.614;2023-07-09T05:31:38;10.95;;;6.40;;
39190;SDS011;24916;51.676;6.614;2023-07-09T05:34:03;12.23;;;6.68;;
39190;SDS011;24916;51.676;6.614;2023-07-09T05:36:29;10.70;;;6.32;;
39190;SDS011;24916;51.676;6.614;2023-07-09T05:38:55;13.02;;;6.20;;
39190;SDS011;24916;51.676;6.614;2023-07-09T05:41:20;10.90;;;6.70;;
39190;SDS011;24916;51.676;6.614;2023-07-09T05:43:45;10.98;;;6.40;;
39190;SDS011;24916;51.676;6.614;2023-07-09T05:46:12;13.38;;;5.88;;
39190;SDS011;24916;51.676;6.614;2023-07-09T05:48:37;22.08;;;6.35;;
39190;SDS011;24916;51.676;6.614;2023-07-09T05:51:02;20.27;;;6.60;;
39190;SDS011;24916;51.676;6.614;2023-07-09T05:53:28;10.85;;;5.93;;
39190;SDS011;24916;51.676;6.614;2023-07-09T05:55:54;14.93;;;6.75;;
39190;SDS011;24916;51.676;6.614;2023-07-09T05:58:19;18.00;;;5.95;;
39190;SDS011;24916;51.676;6.614;2023-07-09T06:00:44;14.63;;;6.20;;
39190;SDS011;24916;51.676;6.614;2023-07-09T06:03:09;12.40;;;6.97;;
39190;SDS011;24916;51.676;6.614;2023-07-09T06:05:35;13.13;;;6.65;;
39190;SDS011;24916;51.676;6.614;2023-07-09T06:08:00;13.65;;;6.88;;
39190;SDS011;24916;51.676;6.614;2023-07-09T06:10:25;17.93;;;6.47;;
39190;SDS011;24916;51.676;6.614;2023-07-09T06:12:51;15.60;;;7.15;;
39190;SDS011;24916;51.676;6.614;2023-07-09T06:15:16;10.15;;;7.00;;
39190;SDS011;24916;51.676;6.614;2023-07-09T06:17:41;9.30;;;5.60;;
39190;SDS011;24916;51.676;6.614;2023-07-09T06:20:07;13.38;;;6.55;;
39190;SDS011;24916;51.676;6.614;2023-07-09T06:22:32;12.38;;;6.30;;
39190;SDS011;24916;51.676;6.614;2023-07-09T06:24:57;11.90;;;6.03;;
39190;SDS011;24916;51.676;6.614;2023-07-09T06:27:23;16.67;;;5.97;;
39190;SDS011;24916;51.676;6.614;2023-07-09T06:29:48;12.23;;;6.20;;
39190;SDS011;24916;51.676;6.614;2023-07-09T06:32:13;14.77;;;6.50;;
39190;SDS011;24916;51.676;6.614;2023-07-09T06:34:39;16.27;;;6.77;;
39190;SDS011;24916;51.676;6.614;2023-07-09T06:37:04;19.77;;;6.37;;
39190;SDS011;24916;51.676;6.614;2023-07-09T06:39:30;15.82;;;5.85;;
39190;SDS011;24916;51.676;6.614;2023-07-09T06:41:55;14.80;;;7.65;;
39190;SDS011;24916;51.676;6.614;2023-07-09T06:44:20;17.00;;;6.10;;
39190;SDS011;24916;51.676;6.614;2023-07-09T06:46:45;15.37;;;6.23;;
39190;SDS011;24916;51.676;6.614;2023-07-09T06:49:12;16.83;;;6.20;;
39190;SDS011;24916;51.676;6.614;2023-07-09T06:51:38;12.60;;;6.07;;
39190;SDS011;24916;51.676;6.614;2023-07-09T06:54:03;19.40;;;6.00;;
39190;SDS011;24916;51.676;6.614;2023-07-09T06:56:30;13.77;;;5.82;;
39190;SDS011;24916;51.676;6.614;2023-07-09T06:58:55;9.00;;;5.20;;
39190;SDS011;24916;51.676;6.614;2023-07-09T07:01:21;16.48;;;7.07;;
39190;SDS011;24916;51.676;6.614;2023-07-09T07:03:46;14.45;;;6.43;;
39190;SDS011;24916;51.676;6.614;2023-07-09T07:06:12;17.52;;;6.45;;
39190;SDS011;24916;51.676;6.614;2023-07-09T07:08:37;17.87;;;7.00;;
39190;SDS011;24916;51.676;6.614;2023-07-09T07:11:03;15.43;;;6.82;;
39190;SDS011;24916;51.676;6.614;2023-07-09T07:13:37;14.20;;;6.65;;
39190;SDS011;24916;51.676;6.614;2023-07-09T07:16:03;11.18;;;5.85;;
39190;SDS011;24916;51.676;6.614;2023-07-09T07:18:29;11.77;;;6.00;;
39190;SDS011;24916;51.676;6.614;2023-07-09T07:20:54;12.15;;;5.75;;
39190;SDS011;24916;51.676;6.614;2023-07-09T07:23:19;16.10;;;6.57;;
39190;SDS011;24916;51.676;6.614;2023-07-09T07:25:45;12.65;;;6.00;;
39190;SDS011;24916;51.676;6.614;2023-07-09T07:28:10;11.15;;;5.53;;
39190;SDS011;24916;51.676;6.614;2023-07-09T07:30:36;11.52;;;6.20;;
39190;SDS011;24916;51.676;6.614;2023-07-09T07:33:01;13.13;;;6.30;;
39190;SDS011;24916;51.676;6.614;2023-07-09T07:35:26;12.02;;;6.50;;
39190;SDS011;24916;51.676;6.614;2023-07-09T07:37:51;19.17;;;6.30;;
39190;SDS011;24916;51.676;6.614;2023-07-09T07:40:17;12.03;;;5.90;;
39190;SDS011;24916;51.676;6.614;2023-07-09T07:42:42;17.92;;;6.50;;
39190;SDS011;24916;51.676;6.614;2023-07-09T07:45:07;15.33;;;6.43;;
39190;SDS011;24916;51.676;6.614;2023-07-09T07:47:33;15.35;;;6.57;;
39190;SDS011;24916;51.676;6.614;2023-07-09T07:49:58;18.20;;;9.82;;
39190;SDS011;24916;51.676;6.614;2023-07-09T07:52:23;18.97;;;9.50;;
39190;SDS011;24916;51.676;6.614;2023-07-09T07:54:49;17.15;;;8.70;;
39190;SDS011;24916;51.676;6.614;2023-07-09T07:57:15;25.85;;;21.45;;
39190;SDS011;24916;51.676;6.614;2023-07-09T07:59:40;13.67;;;8.73;;
39190;SDS011;24916;51.676;6.614;2023-07-09T08:02:06;17.90;;;8.47;;
39190;SDS011;24916;51.676;6.614;2023-07-09T08:04:32;10.10;;;7.50;;
39190;SDS011;24916;51.676;6.614;2023-07-09T08:06:57;18.08;;;6.10;;
39190;SDS011;24916;51.676;6.614;2023-07-09T08:09:23;15.43;;;7.70;;
39190;SDS011;24916;51.676;6.614;2023-07-09T08:11:49;15.50;;;8.32;;
39190;SDS011;24916;51.676;6.614;2023-07-09T08:14:14;12.85;;;7.18;;
39190;SDS011;24916;51.676;6.614;2023-07-09T08:16:40;15.25;;;8.40;;
39190;SDS011;24916;51.676;6.614;2023-07-09T08:19:05;8.93;;;5.67;;
39190;SDS011;24916;51.676;6.614;2023-07-09T08:21:30;11.73;;;5.23;;
39190;SDS011;24916;51.676;6.614;2023-07-09T08:23:55;12.95;;;7.20;;
39190;SDS011;24916;51.676;6.614;2023-07-09T08:26:21;12.67;;;5.77;;
39190;SDS011;24916;51.676;6.614;2023-07-09T08:28:46;12.30;;;6.60;;
39190;SDS011;24916;51.676;6.614;2023-07-09T08:31:11;15.35;;;9.10;;
39190;SDS011;24916;51.676;6.614;2023-07-09T08:33:36;11.17;;;5.90;;
39190;SDS011;24916;51.676;6.614;2023-07-09T08:36:02;11.90;;;7.87;;
39190;SDS011;24916;51.676;6.614;2023-07-09T08:38:27;21.38;;;13.35;;
39190;SDS011;24916;51.676;6.614;2023-07-09T08:41:54;17.70;;;10.70;;
39190;SDS011;24916;51.676;6.614;2023-07-09T08:46:27;14.18;;;7.28;;
39190;SDS011;24916;51.676;6.614;2023-07-09T08:48:53;7.65;;;5.03;;
39190;SDS011;24916;51.676;6.614;2023-07-09T08:53:45;8.57;;;7.07;;
39190;SDS011;24916;51.676;6.614;2023-07-09T08:56:13;11.07;;;5.07;;
39190;SDS011;24916;51.676;6.614;2023-07-09T08:58:39;9.40;;;5.72;;
39190;SDS011;24916;51.676;6.614;2023-07-09T09:01:06;7.05;;;4.40;;
39190;SDS011;24916;51.676;6.614;2023-07-09T09:03:39;8.75;;;4.85;;
39190;SDS011;24916;51.676;6.614;2023-07-09T09:06:38;12.95;;;6.13;;
39190;SDS011;24916;51.676;6.614;2023-07-09T09:09:05;7.95;;;4.82;;
39190;SDS011;24916;51.676;6.614;2023-07-09T09:14:02;15.73;;;4.88;;
39190;SDS011;24916;51.676;6.614;2023-07-09T09:16:30;12.40;;;5.40;;
39190;SDS011;24916;51.676;6.614;2023-07-09T09:18:59;11.00;;;5.80;;
39190;SDS011;24916;51.676;6.614;2023-07-09T09:23:50;7.93;;;5.00;;
39190;SDS011;24916;51.676;6.614;2023-07-09T09:26:23;7.63;;;5.10;;
39190;SDS011;24916;51.676;6.614;2023-07-09T09:28:49;14.05;;;7.05;;
39190;SDS011;24916;51.676;6.614;2023-07-09T09:31:15;13.20;;;4.65;;
39190;SDS011;24916;51.676;6.614;2023-07-09T09:33:42;9.85;;;5.35;;
39190;SDS011;24916;51.676;6.614;2023-07-09T09:36:15;7.95;;;4.22;;
39190;SDS011;24916;51.676;6.614;2023-07-09T09:38:41;16.00;;;5.00;;
39190;SDS011;24916;51.676;6.614;2023-07-09T09:41:14;8.50;;;5.18;;
39190;SDS011;24916;51.676;6.614;2023-07-09T09:43:41;7.22;;;3.92;;
39190;SDS011;24916;51.676;6.614;2023-07-09T09:46:06;8.07;;;3.67;;
39190;SDS011;24916;51.676;6.614;2023-07-09T09:48:32;7.78;;;3.53;;
39190;SDS011;24916;51.676;6.614;2023-07-09T09:50:57;12.27;;;3.23;;
39190;SDS011;24916;51.676;6.614;2023-07-09T09:53:26;8.05;;;3.80;;
39190;SDS011;24916;51.676;6.614;2023-07-09T09:55:53;8.13;;;3.92;;
39190;SDS011;24916;51.676;6.614;2023-07-09T09:58:19;7.53;;;4.03;;
39190;SDS011;24916;51.676;6.614;2023-07-09T10:00:51;5.50;;;3.25;;
39190;SDS011;24916;51.676;6.614;2023-07-09T10:03:17;6.82;;;3.47;;
39190;SDS011;24916;51.676;6.614;2023-07-09T10:05:56;7.20;;;3.15;;
39190;SDS011;24916;51.676;6.614;2023-07-09T10:10:47;4.63;;;3.07;;
39190;SDS011;24916;51.676;6.614;2023-07-09T10:13:26;8.98;;;5.20;;
39190;SDS011;24916;51.676;6.614;2023-07-09T10:33:39;5.47;;;4.22;;
39190;SDS011;24916;51.676;6.614;2023-07-09T10:36:24;4.38;;;2.60;;
39190;SDS011;24916;51.676;6.614;2023-07-09T10:41:22;4.45;;;2.40;;
39190;SDS011;24916;51.676;6.614;2023-07-09T10:43:50;5.00;;;3.30;;
39190;SDS011;24916;51.676;6.614;2023-07-09T10:46:22;5.88;;;3.60;;
39190;SDS011;24916;51.676;6.614;2023-07-09T10:48:53;4.50;;;3.10;;
39190;SDS011;24916;51.676;6.614;2023-07-09T10:53:48;7.32;;;3.47;;
39190;SDS011;24916;51.676;6.614;2023-07-09T10:56:21;6.05;;;3.35;;
39190;SDS011;24916;51.676;6.614;2023-07-09T11:01:19;5.53;;;3.25;;
39190;SDS011;24916;51.676;6.614;2023-07-09T11:03:50;7.47;;;4.03;;
39190;SDS011;24916;51.676;6.614;2023-07-09T11:06:19;8.30;;;4.10;;
39190;SDS011;24916;51.676;6.614;2023-07-09T11:08:45;9.13;;;3.63;;
39190;SDS011;24916;51.676;6.614;2023-07-09T11:11:14;8.13;;;3.70;;
39190;SDS011;24916;51.676;6.614;2023-07-09T11:13:49;8.70;;;3.10;;
39190;SDS011;24916;51.676;6.614;2023-07-09T11:16:18;6.72;;;3.00;;
39190;SDS011;24916;51.676;6.614;2023-07-09T11:18:52;7.65;;;3.10;;
39190;SDS011;24916;51.676;6.614;2023-07-09T11:21:19;6.70;;;2.60;;
39190;SDS011;24916;51.676;6.614;2023-07-09T11:23:49;8.53;;;3.40;;
39190;SDS011;24916;51.676;6.614;2023-07-09T11:28:41;4.67;;;2.80;;
39190;SDS011;24916;51.676;6.614;2023-07-09T11:31:20;5.28;;;2.58;;
39190;SDS011;24916;51.676;6.614;2023-07-09T11:33:47;6.57;;;4.10;;
39190;SDS011;24916;51.676;6.614;2023-07-09T11:36:13;5.93;;;2.80;;
39190;SDS011;24916;51.676;6.614;2023-07-09T11:38:45;11.23;;;3.03;;
39190;SDS011;24916;51.676;6.614;2023-07-09T11:41:26;5.45;;;2.70;;
39190;SDS011;24916;51.676;6.614;2023-07-09T11:43:52;5.50;;;2.45;;
39190;SDS011;24916;51.676;6.614;2023-07-09T11:46:18;13.85;;;2.97;;
39190;SDS011;24916;51.676;6.614;2023-07-09T11:48:45;8.10;;;3.15;;
39190;SDS011;24916;51.676;6.614;2023-07-09T11:51:20;11.35;;;3.08;;
39190;SDS011;24916;51.676;6.614;2023-07-09T11:53:49;3.30;;;2.95;;
39190;SDS011;24916;51.676;6.614;2023-07-09T11:56:18;11.20;;;3.45;;
39190;SDS011;24916;51.676;6.614;2023-07-09T11:58:50;7.22;;;2.92;;
39190;SDS011;24916;51.676;6.614;2023-07-09T12:01:17;5.53;;;3.55;;
39190;SDS011;24916;51.676;6.614;2023-07-09T12:03:44;6.68;;;3.10;;
39190;SDS011;24916;51.676;6.614;2023-07-09T12:06:23;10.48;;;3.67;;
39190;SDS011;24916;51.676;6.614;2023-07-09T12:08:49;7.57;;;3.38;;
39190;SDS011;24916;51.676;6.614;2023-07-09T12:11:33;7.05;;;3.17;;
39190;SDS011;24916;51.676;6.614;2023-07-09T12:14:02;17.67;;;10.75;;
39190;SDS011;24916;51.676;6.614;2023-07-09T12:16:35;9.55;;;5.03;;
39190;SDS011;24916;51.676;6.614;2023-07-09T12:19:01;11.82;;;3.85;;
39190;SDS011;24916;51.676;6.614;2023-07-09T12:21:26;5.27;;;3.10;;
39190;SDS011;24916;51.676;6.614;2023-07-09T12:23:52;5.00;;;3.22;;
39190;SDS011;24916;51.676;6.614;2023-07-09T12:26:18;11.50;;;3.47;;
39190;SDS011;24916;51.676;6.614;2023-07-09T12:28:54;7.05;;;3.40;;
39190;SDS011;24916;51.676;6.614;2023-07-09T12:31:21;8.93;;;3.50;;
39190;SDS011;24916;51.676;6.614;2023-07-09T12:33:51;8.60;;;3.10;;
39190;SDS011;24916;51.676;6.614;2023-07-09T12:36:17;6.22;;;3.60;;
39190;SDS011;24916;51.676;6.614;2023-07-09T12:38:44;5.30;;;2.95;;
39190;SDS011;24916;51.676;6.614;2023-07-09T12:41:26;7.93;;;2.90;;
39190;SDS011;24916;51.676;6.614;2023-07-09T12:43:53;3.78;;;2.83;;
39190;SDS011;24916;51.676;6.614;2023-07-09T12:46:19;6.20;;;3.30;;
39190;SDS011;24916;51.676;6.614;2023-07-09T12:48:45;3.50;;;2.80;;
39190;SDS011;24916;51.676;6.614;2023-07-09T12:51:13;8.10;;;3.28;;
39190;SDS011;24916;51.676;6.614;2023-07-09T12:53:40;6.88;;;3.05;;
39190;SDS011;24916;51.676;6.614;2023-07-09T12:56:09;7.10;;;4.03;;
39190;SDS011;24916;51.676;6.614;2023-07-09T12:58:36;7.10;;;4.90;;
39190;SDS011;24916;51.676;6.614;2023-07-09T13:01:04;10.50;;;3.80;;
39190;SDS011;24916;51.676;6.614;2023-07-09T13:03:32;4.60;;;3.28;;
39190;SDS011;24916;51.676;6.614;2023-07-09T13:06:01;8.25;;;2.90;;
39190;SDS011;24916;51.676;6.614;2023-07-09T13:08:29;4.60;;;2.75;;
39190;SDS011;24916;51.676;6.614;2023-07-09T13:10:55;7.25;;;3.05;;
39190;SDS011;24916;51.676;6.614;2023-07-09T13:13:21;5.75;;;2.75;;
39190;SDS011;24916;51.676;6.614;2023-07-09T13:15:48;6.43;;;3.15;;
39190;SDS011;24916;51.676;6.614;2023-07-09T13:18:23;6.90;;;3.17;;
39190;SDS011;24916;51.676;6.614;2023-07-09T13:20:50;14.90;;;13.38;;
39190;SDS011;24916;51.676;6.614;2023-07-09T13:23:19;19.10;;;11.40;;
39190;SDS011;24916;51.676;6.614;2023-07-09T13:25:45;6.90;;;3.83;;
39190;SDS011;24916;51.676;6.614;2023-07-09T13:28:24;5.05;;;3.05;;
39190;SDS011;24916;51.676;6.614;2023-07-09T13:30:53;5.35;;;3.15;;
39190;SDS011;24916;51.676;6.614;2023-07-09T13:33:20;5.88;;;3.00;;
39190;SDS011;24916;51.676;6.614;2023-07-09T13:35:46;7.73;;;2.97;;
39190;SDS011;24916;51.676;6.614;2023-07-09T13:38:12;7.35;;;3.80;;
39190;SDS011;24916;51.676;6.614;2023-07-09T13:40:38;5.65;;;2.95;;
39190;SDS011;24916;51.676;6.614;2023-07-09T13:43:07;7.95;;;3.03;;
39190;SDS011;24916;51.676;6.614;2023-07-09T13:45:32;3.28;;;2.60;;
39190;SDS011;24916;51.676;6.614;2023-07-09T13:47:58;7.15;;;2.80;;
39190;SDS011;24916;51.676;6.614;2023-07-09T13:50:23;9.50;;;7.10;;
39190;SDS011;24916;51.676;6.614;2023-07-09T13:52:48;17.50;;;15.67;;
39190;SDS011;24916;51.676;6.614;2023-07-09T13:55:19;21.20;;;19.00;;
39190;SDS011;24916;51.676;6.614;2023-07-09T13:57:45;9.88;;;8.00;;
39190;SDS011;24916;51.676;6.614;2023-07-09T14:00:11;7.97;;;4.57;;
39190;SDS011;24916;51.676;6.614;2023-07-09T14:02:37;10.35;;;6.60;;
39190;SDS011;24916;51.676;6.614;2023-07-09T14:05:03;20.33;;;13.45;;
39190;SDS011;24916;51.676;6.614;2023-07-09T14:07:29;24.15;;;17.75;;
39190;SDS011;24916;51.676;6.614;2023-07-09T14:09:56;11.25;;;6.25;;
39190;SDS011;24916;51.676;6.614;2023-07-09T14:12:22;8.40;;;4.70;;
39190;SDS011;24916;51.676;6.614;2023-07-09T14:14:48;6.90;;;3.97;;
39190;SDS011;24916;51.676;6.614;2023-07-09T14:17:14;10.07;;;5.47;;
39190;SDS011;24916;51.676;6.614;2023-07-09T14:19:39;5.70;;;3.00;;
39190;SDS011;24916;51.676;6.614;2023-07-09T14:22:14;8.77;;;5.30;;
39190;SDS011;24916;51.676;6.614;2023-07-09T14:24:43;9.32;;;5.85;;
39190;SDS011;24916;51.676;6.614;2023-07-09T14:27:08;6.73;;;3.83;;
39190;SDS011;24916;51.676;6.614;2023-07-09T14:29:34;7.55;;;3.60;;
39190;SDS011;24916;51.676;6.614;2023-07-09T14:31:59;9.80;;;4.00;;
39190;SDS011;24916;51.676;6.614;2023-07-09T14:34:27;9.00;;;3.77;;
39190;SDS011;24916;51.676;6.614;2023-07-09T14:36:54;13.25;;;10.70;;
39190;SDS011;24916;51.676;6.614;2023-07-09T14:39:19;9.30;;;4.10;;
39190;SDS011;24916;51.676;6.614;2023-07-09T14:41:45;8.65;;;4.45;;
39190;SDS011;24916;51.676;6.614;2023-07-09T14:44:31;11.05;;;3.67;;
39190;SDS011;24916;51.676;6.614;2023-07-09T14:46:57;8.43;;;4.30;;
39190;SDS011;24916;51.676;6.614;2023-07-09T14:49:23;11.48;;;3.95;;
39190;SDS011;24916;51.676;6.614;2023-07-09T14:51:49;12.98;;;5.45;;
39190;SDS011;24916;51.676;6.614;2023-07-09T14:56:42;11.68;;;6.47;;
39190;SDS011;24916;51.676;6.614;2023-07-09T14:59:08;17.83;;;4.50;;
39190;SDS011;24916;51.676;6.614;2023-07-09T15:01:33;17.38;;;4.78;;
39190;SDS011;24916;51.676;6.614;2023-07-09T15:03:58;21.00;;;5.17;;
39190;SDS011;24916;51.676;6.614;2023-07-09T15:06:24;12.43;;;6.28;;
39190;SDS011;24916;51.676;6.614;2023-07-09T15:08:49;26.87;;;9.67;;
39190;SDS011;24916;51.676;6.614;2023-07-09T15:11:14;13.07;;;6.43;;
39190;SDS011;24916;51.676;6.614;2023-07-09T15:13:39;11.23;;;6.70;;
39190;SDS011;24916;51.676;6.614;2023-07-09T15:16:05;13.80;;;8.10;;
39190;SDS011;24916;51.676;6.614;2023-07-09T15:18:31;12.70;;;7.28;;
39190;SDS011;24916;51.676;6.614;2023-07-09T15:21:00;15.40;;;7.85;;
39190;SDS011;24916;51.676;6.614;2023-07-09T15:23:26;15.13;;;6.93;;
39190;SDS011;24916;51.676;6.614;2023-07-09T15:25:51;11.35;;;8.38;;